Terminal Aerodrome Forecast
Issued by NWS

Home | Current Version | Previous Version | Text Only | Print | Product List | Glossary On
Versions: 1 2 3 4 5 6 7 8 9 10 11 12 13 14 15 16
281
FTAK31 PAJN 212328
TAFAKT
TAF
PAKT 212328Z 2200/2224 30010KT P6SM SCT050 OVC100
     FM220300 VRB05KT P6SM OVC050
     FM220800 13008KT 4SM -RA BR BKN030 OVC050
     FM221500 14010KT 3SM -RA BR OVC015
     FM221900 14010KT 6SM -RA BR SCT015 OVC025
      AMD LTD TO CLD VIS AND WIND 2206/2215=

USA.gov is the U.S. government's official web portal to all federal, state and local government web resources and services.